Time;durP1;ratioP1;P1;durP2;ratioP2;P2;SDS_P1;SDS_P2;PMS_P1;PMS_P2;Temp;Humidity;BMP_temperature;BMP_pressure;BME280_temperature;BME280_humidity;BME280_pressure;Samples;Min_cycle;Max_cycle;Signal;HPM_P1;HPM_P2
2023/06/02 00:01:00;;;;;;;4.97;2.60;;;;;;;20.26;64.12;98807.34;6155773;23;20178;-86
2023/06/02 00:03:30;;;;;;;5.17;2.47;;;;;;;20.18;64.97;98808.88;6156049;23;20170;-86
2023/06/02 00:05:57;;;;;;;6.53;2.47;;;;;;;20.18;64.75;98794.72;6155701;23;20147;-86
2023/06/02 00:08:23;;;;;;;4.63;2.50;;;;;;;20.18;64.33;98798.22;6155643;23;20281;-86
2023/06/02 00:10:48;;;;;;;5.20;2.93;;;;;;;20.15;64.46;98803.84;6156315;23;20193;-86
2023/06/02 00:13:14;;;;;;;7.50;3.50;;;;;;;20.14;64.28;98804.84;6155945;23;20147;-86
2023/06/02 00:15:40;;;;;;;5.40;2.60;;;;;;;20.03;64.85;98802.38;6155930;23;20205;-86
2023/06/02 00:18:07;;;;;;;5.20;2.87;;;;;;;19.98;64.89;98806.47;6130947;23;20526;-86
2023/06/02 00:20:32;;;;;;;5.57;2.90;;;;;;;19.94;65.23;98800.59;6129814;23;20186;-86
2023/06/02 00:22:58;;;;;;;4.37;2.53;;;;;;;19.93;65.15;98801.59;6155634;23;20174;-86
2023/06/02 00:25:23;;;;;;;6.53;2.73;;;;;;;19.88;65.34;98789.72;6155933;23;20209;-86
2023/06/02 00:27:49;;;;;;;6.20;2.50;;;;;;;19.83;65.34;98784.84;6155529;23;20147;-86
2023/06/02 00:30:15;;;;;;;4.63;1.90;;;;;;;19.84;64.96;98797.16;6155599;23;20289;-86
2023/06/02 00:32:40;;;;;;;6.03;3.07;;;;;;;19.86;65.36;98799.69;6157074;23;20158;-86
2023/06/02 00:35:06;;;;;;;5.37;2.30;;;;;;;19.76;65.71;98797.03;6158194;23;20167;-86
2023/06/02 00:37:32;;;;;;;7.93;2.90;;;;;;;19.83;65.24;98795.50;6158192;23;20209;-86
2023/06/02 00:39:57;;;;;;;6.77;3.23;;;;;;;19.90;64.79;98798.38;6157486;23;20175;-85
2023/06/02 00:42:23;;;;;;;4.83;2.13;;;;;;;19.95;64.24;98796.97;6131823;23;20190;-86
2023/06/02 00:44:48;;;;;;;5.07;2.97;;;;;;;19.95;63.68;98794.31;6131797;23;20601;-86
2023/06/02 00:47:13;;;;;;;9.00;3.10;;;;;;;19.87;63.71;98796.84;6157504;23;20151;-86
2023/06/02 00:49:39;;;;;;;5.20;2.30;;;;;;;19.85;63.79;98788.19;6157781;23;20278;-86
2023/06/02 00:52:05;;;;;;;4.57;2.60;;;;;;;19.85;63.89;98792.66;6158097;23;20167;-86
2023/06/02 00:54:31;;;;;;;6.33;2.57;;;;;;;19.83;64.37;98790.16;6157394;23;20210;-86
2023/06/02 00:56:57;;;;;;;5.37;3.20;;;;;;;19.72;64.78;98789.50;6157427;23;20580;-86
2023/06/02 00:59:23;;;;;;;6.93;2.50;;;;;;;19.62;65.60;98792.22;6157307;23;20182;-86
2023/06/02 01:01:48;;;;;;;6.20;2.30;;;;;;;19.61;65.33;98793.19;6157358;23;20452;-86
2023/06/02 01:04:15;;;;;;;8.87;2.70;;;;;;;19.63;65.19;98798.38;6157996;23;20147;-86
2023/06/02 01:06:42;;;;;;;8.23;2.67;;;;;;;19.64;65.67;98790.25;6157666;23;20147;-86
2023/06/02 01:09:10;;;;;;;6.50;3.30;;;;;;;19.61;65.07;98796.69;6131446;23;20190;-86
2023/06/02 01:11:36;;;;;;;5.50;2.70;;;;;;;19.62;65.18;98792.22;6132155;23;20622;-86
2023/06/02 01:14:02;;;;;;;4.97;2.50;;;;;;;19.67;64.91;98786.44;6157201;23;20223;-86
2023/06/02 01:16:30;;;;;;;3.70;2.10;;;;;;;19.64;64.68;98795.56;6157162;23;20171;-86
2023/06/02 01:18:59;;;;;;;7.00;2.73;;;;;;;19.65;64.37;98796.41;6157139;23;20259;-86
2023/06/02 01:21:28;;;;;;;8.13;2.47;;;;;;;19.61;64.84;98790.53;6157090;23;20186;-86
2023/06/02 01:23:57;;;;;;;6.50;2.33;;;;;;;19.59;64.75;98787.19;6157089;23;20147;-86
2023/06/02 01:26:23;;;;;;;5.90;2.77;;;;;;;19.56;64.39;98803.41;6131324;23;20155;-86
2023/06/02 01:28:49;;;;;;;8.00;3.10;;;;;;;19.41;65.00;98794.25;6157408;23;20148;-86
2023/06/02 01:31:25;;;;;;;5.70;2.33;;;;;;;19.35;65.52;98808.06;6157411;23;20162;-86
2023/06/02 01:34:15;;;;;;;5.33;2.80;;;;;;;19.35;65.23;98805.41;6157427;23;20138;-86
2023/06/02 01:36:42;;;;;;;7.00;2.90;;;;;;;19.34;64.92;98806.41;6131332;23;20191;-86
2023/06/02 01:39:09;;;;;;;7.23;3.43;;;;;;;19.38;64.70;98805.16;6156862;23;20685;-86
2023/06/02 01:41:40;;;;;;;8.20;3.13;;;;;;;19.38;64.24;98805.16;6131301;23;20161;-86
2023/06/02 01:44:06;;;;;;;5.53;2.87;;;;;;;19.37;63.57;98804.31;6156928;23;20143;-86
2023/06/02 01:46:32;;;;;;;11.30;3.97;;;;;;;19.29;64.14;98800.66;6156893;23;20158;-86
2023/06/02 01:48:57;;;;;;;6.07;2.80;;;;;;;19.27;63.88;98799.97;6157233;23;20151;-86
2023/06/02 01:51:23;;;;;;;5.30;2.80;;;;;;;19.20;64.29;98793.56;6156887;23;20151;-86
2023/06/02 01:53:48;;;;;;;7.57;2.77;;;;;;;19.14;64.62;98796.78;6157248;23;20217;-86
2023/06/02 01:56:14;;;;;;;8.73;2.70;;;;;;;19.12;64.53;98791.63;6156884;23;20155;-86
2023/06/02 01:58:40;;;;;;;8.23;2.83;;;;;;;19.07;64.40;98795.69;6156750;23;20265;-86
2023/06/02 02:01:06;;;;;;;9.37;2.43;;;;;;;19.02;64.70;98798.75;6156786;23;20152;-86
2023/06/02 02:03:32;;;;;;;7.27;2.60;;;;;;;18.98;64.74;98792.88;6156727;23;20177;-86
2023/06/02 02:05:58;;;;;;;5.17;2.90;;;;;;;18.90;64.71;98800.72;6156713;23;20154;-86
2023/06/02 02:08:24;;;;;;;7.23;3.13;;;;;;;18.90;64.41;98803.38;6156753;23;20147;-86
2023/06/02 02:10:50;;;;;;;5.67;3.40;;;;;;;18.83;64.45;98804.94;6157057;23;20144;-86
2023/06/02 02:13:15;;;;;;;6.37;2.87;;;;;;;18.80;64.29;98799.88;6156717;23;20591;-86
2023/06/02 02:15:40;;;;;;;4.40;2.33;;;;;;;18.76;64.20;98795.81;6156635;23;20150;-86
2023/06/02 02:18:06;;;;;;;4.73;2.73;;;;;;;18.72;64.27;98794.44;6157322;23;20222;-86
2023/06/02 02:20:32;;;;;;;4.87;2.50;;;;;;;18.72;64.32;98791.78;6156450;23;20214;-86
2023/06/02 02:22:58;;;;;;;4.90;2.87;;;;;;;18.76;64.08;98787.84;6156614;23;20224;-86
2023/06/02 02:25:24;;;;;;;5.40;2.47;;;;;;;18.80;63.83;98788.44;6156564;23;20278;-86
2023/06/02 02:27:49;;;;;;;5.63;2.40;;;;;;;18.75;63.90;98790.66;6157271;23;20151;-86
2023/06/02 02:30:15;;;;;;;6.63;3.40;;;;;;;18.69;64.15;98791.22;6156559;23;20481;-86
2023/06/02 02:32:44;;;;;;;8.87;3.17;;;;;;;18.66;64.27;98789.69;6130789;23;20154;-86
2023/06/02 02:35:10;;;;;;;5.27;2.77;;;;;;;18.60;64.02;98797.38;6156500;23;20158;-86
2023/06/02 02:37:36;;;;;;;6.57;3.00;;;;;;;18.62;63.81;98790.94;6156512;23;20587;-86
2023/06/02 02:40:03;;;;;;;5.90;2.70;;;;;;;18.61;63.72;98793.72;6156673;23;20171;-86
2023/06/02 02:42:28;;;;;;;4.80;2.47;;;;;;;18.57;64.24;98790.53;6156457;23;20151;-86
2023/06/02 02:44:54;;;;;;;6.40;2.90;;;;;;;18.51;64.06;98796.38;6156355;23;20198;-86
2023/06/02 02:47:20;;;;;;;6.57;2.73;;;;;;;18.46;64.18;98793.28;6155223;23;20223;-86
2023/06/02 02:53:07;;;;;;;14.00;2.67;;;;;;;18.34;64.65;98797.84;6157100;23;20582;-86
2023/06/02 02:55:33;;;;;;;5.50;3.00;;;;;;;18.34;64.99;98791.75;6156302;23;20156;-86
2023/06/02 02:58:00;;;;;;;5.27;2.67;;;;;;;18.29;65.05;98791.31;6156151;23;20158;-86
2023/06/02 03:00:25;;;;;;;7.10;3.10;;;;;;;18.29;64.92;98791.31;6130397;23;20192;-86
2023/06/02 03:02:51;;;;;;;14.90;3.90;;;;;;;18.31;65.06;98786.72;6130495;23;20155;-86
2023/06/02 03:05:16;;;;;;;7.13;2.73;;;;;;;18.33;64.82;98785.59;6130430;23;20582;-86
2023/06/02 03:07:44;;;;;;;6.67;2.93;;;;;;;18.35;64.70;98780.13;6156169;23;20151;-86
2023/06/02 03:10:10;;;;;;;5.80;3.17;;;;;;;18.33;64.51;98774.97;6156536;23;20151;-86
2023/06/02 03:12:36;;;;;;;4.87;2.70;;;;;;;18.29;64.81;98783.34;6156101;23;20235;-86
2023/06/02 03:15:02;;;;;;;6.23;3.53;;;;;;;18.25;64.71;98776.63;6156108;23;20147;-86
2023/06/02 03:17:30;;;;;;;4.87;3.10;;;;;;;18.22;64.87;98776.91;6156758;23;20164;-86
2023/06/02 03:19:56;;;;;;;6.10;3.10;;;;;;;18.23;65.20;98779.44;6156251;23;20182;-86
2023/06/02 03:22:22;;;;;;;5.77;2.60;;;;;;;18.29;65.14;98783.34;6154861;23;20159;-86
2023/06/02 03:24:48;;;;;;;6.57;2.93;;;;;;;18.31;64.71;98781.41;6155986;23;20156;-86
2023/06/02 03:27:15;;;;;;;7.13;2.77;;;;;;;18.29;65.23;98783.34;6156310;23;20151;-86
2023/06/02 03:29:41;;;;;;;5.33;2.87;;;;;;;18.26;65.29;98788.94;6130210;23;20181;-86
2023/06/02 03:32:11;;;;;;;9.67;3.27;;;;;;;18.23;65.70;98778.59;6156640;23;20158;-86
2023/06/02 03:34:39;;;;;;;5.73;3.33;;;;;;;18.19;66.51;98791.28;6156292;23;20153;-86
2023/06/02 03:37:05;;;;;;;6.30;3.33;;;;;;;18.17;66.92;98785.28;6155910;23;20168;-86
2023/06/02 03:39:31;;;;;;;6.80;3.50;;;;;;;18.17;66.93;98784.44;6156169;23;20252;-86
2023/06/02 03:41:56;;;;;;;7.07;3.50;;;;;;;18.20;67.27;98778.84;6156210;23;20191;-86
2023/06/02 03:44:22;;;;;;;6.57;3.20;;;;;;;18.22;66.91;98784.84;6155859;23;20151;-86
2023/06/02 03:46:47;;;;;;;5.60;3.17;;;;;;;18.24;67.16;98778.44;6156188;23;20151;-87
2023/06/02 03:49:13;;;;;;;8.00;3.60;;;;;;;18.28;67.13;98773.72;6155787;23;20220;-86
2023/06/02 03:51:38;;;;;;;4.57;2.73;;;;;;;18.36;66.40;98776.50;6130363;23;20237;-86
2023/06/02 03:54:03;;;;;;;6.70;3.20;;;;;;;18.41;66.53;98766.31;6130070;23;20233;-87
2023/06/02 03:56:29;;;;;;;6.87;3.30;;;;;;;18.48;65.98;98762.16;6155737;23;20590;-86
2023/06/02 03:58:54;;;;;;;11.23;3.50;;;;;;;18.53;65.80;98762.56;6155680;23;20517;-86
2023/06/02 04:01:21;;;;;;;6.40;3.33;;;;;;;18.55;65.37;98758.00;6130046;23;20155;-86
2023/06/02 04:03:47;;;;;;;7.67;3.23;;;;;;;18.56;65.53;98762.31;6155670;23;20757;-86
2023/06/02 04:06:13;;;;;;;10.30;3.37;;;;;;;18.57;65.47;98755.19;6155505;23;20151;-86
2023/06/02 04:08:39;;;;;;;9.43;3.60;;;;;;;18.58;65.77;98759.53;6155618;23;20178;-86
2023/06/02 04:11:04;;;;;;;6.40;3.13;;;;;;;18.59;65.47;98763.84;6155995;23;20242;-86
2023/06/02 04:13:30;;;;;;;5.53;3.30;;;;;;;18.56;65.39;98769.41;6155647;23;20150;-86
2023/06/02 04:15:56;;;;;;;7.43;3.07;;;;;;;18.53;65.78;98764.38;6155667;23;20150;-86
2023/06/02 04:18:21;;;;;;;6.43;3.50;;;;;;;18.55;65.73;98767.75;6155704;23;20214;-86
2023/06/02 04:20:47;;;;;;;8.10;3.60;;;;;;;18.66;65.91;98771.09;6155457;23;20253;-86
2023/06/02 04:23:12;;;;;;;5.50;3.03;;;;;;;18.74;66.35;98768.59;6155597;23;20154;-86
2023/06/02 04:25:37;;;;;;;8.47;3.07;;;;;;;18.74;66.53;98773.91;6156025;23;20159;-86
2023/06/02 04:28:03;;;;;;;7.53;3.90;;;;;;;18.75;66.97;98775.59;6155647;23;20161;-86
2023/06/02 04:30:28;;;;;;;6.57;3.53;;;;;;;18.80;67.43;98775.16;6130312;23;20166;-86
2023/06/02 04:32:54;;;;;;;5.70;3.17;;;;;;;18.93;67.32;98781.00;6155946;23;20151;-86
2023/06/02 04:35:21;;;;;;;12.93;3.93;;;;;;;19.07;66.88;98769.94;6155892;23;20609;-86
2023/06/02 04:37:46;;;;;;;6.00;3.07;;;;;;;19.23;66.88;98766.69;6129920;23;20533;-86
2023/06/02 04:40:13;;;;;;;5.13;2.80;;;;;;;19.42;66.30;98764.00;6155839;23;20272;-86
2023/06/02 04:42:39;;;;;;;8.57;3.63;;;;;;;19.49;66.72;98767.78;6155557;23;20174;-86
2023/06/02 04:45:10;;;;;;;6.07;3.23;;;;;;;19.56;67.23;98768.84;6155902;23;20606;-86
2023/06/02 04:47:36;;;;;;;6.80;3.70;;;;;;;19.56;67.22;98776.84;6155949;23;20217;-86
2023/06/02 04:50:02;;;;;;;10.63;3.50;;;;;;;19.60;68.02;98775.56;6156148;23;20222;-86
2023/06/02 04:52:27;;;;;;;5.37;3.47;;;;;;;19.65;67.68;98781.28;6155829;23;20155;-86
2023/06/02 04:54:53;;;;;;;5.43;2.90;;;;;;;19.75;67.69;98779.44;6155548;23;20217;-86
2023/06/02 04:57:18;;;;;;;10.73;4.13;;;;;;;19.90;67.78;98785.94;6155534;23;20178;-86
2023/06/02 04:59:44;;;;;;;7.60;3.77;;;;;;;20.00;67.97;98786.72;6155343;23;20171;-86
2023/06/02 05:02:09;;;;;;;7.10;3.60;;;;;;;20.30;67.45;98784.75;6155498;23;20148;-86
2023/06/02 05:04:35;;;;;;;7.07;3.60;;;;;;;20.54;67.13;98787.66;6155875;23;20155;-86
2023/06/02 05:07:00;;;;;;;6.07;3.43;;;;;;;20.92;66.23;98790.00;6155507;23;20519;-85
2023/06/02 05:09:26;;;;;;;12.53;4.40;;;;;;;21.17;65.78;98794.56;6155781;23;20225;-86
2023/06/02 05:11:51;;;;;;;7.10;4.03;;;;;;;21.41;65.74;98786.72;6155766;23;20151;-85
2023/06/02 05:14:17;;;;;;;6.57;3.77;;;;;;;21.64;65.63;98792.38;6129687;23;20155;-85
2023/06/02 05:16:44;;;;;;;7.30;3.73;;;;;;;21.85;65.74;98795.50;6129735;23;20159;-85
2023/06/02 05:19:10;;;;;;;6.13;3.47;;;;;;;22.07;65.82;98802.09;6130691;23;20179;-86
2023/06/02 05:21:35;;;;;;;8.17;4.30;;;;;;;22.34;65.63;98801.88;6131485;23;20584;-86
2023/06/02 05:24:00;;;;;;;11.03;3.73;;;;;;;22.56;65.59;98805.75;6155943;23;20161;-86
2023/06/02 05:26:26;;;;;;;6.93;3.00;;;;;;;22.84;64.87;98806.31;6131369;23;20158;-86
2023/06/02 05:28:53;;;;;;;8.17;3.63;;;;;;;23.07;63.54;98812.69;6131725;23;20162;-86
2023/06/02 05:31:19;;;;;;;8.30;3.50;;;;;;;23.29;63.09;98813.84;6157029;23;20175;-86
2023/06/02 05:33:44;;;;;;;9.13;3.43;;;;;;;23.46;61.77;98811.00;6131279;23;20162;-86
2023/06/02 05:36:10;;;;;;;11.80;3.47;;;;;;;23.61;60.81;98805.81;6157352;23;20147;-86
2023/06/02 05:38:38;;;;;;;5.83;2.87;;;;;;;23.60;60.09;98810.31;6157353;23;20158;-87
2023/06/02 05:41:04;;;;;;;10.83;4.07;;;;;;;23.74;60.77;98808.78;6131188;23;20238;-86
2023/06/02 05:43:29;;;;;;;9.77;3.23;;;;;;;23.89;59.82;98811.56;6157353;23;20151;-87
2023/06/02 05:45:55;;;;;;;5.53;3.20;;;;;;;23.94;57.83;98806.53;6156985;23;20464;-86
2023/06/02 05:48:20;;;;;;;8.30;3.50;;;;;;;24.01;58.42;98813.69;6156902;23;20585;-86
2023/06/02 05:50:46;;;;;;;7.97;3.50;;;;;;;24.25;58.38;98812.78;6156915;23;20532;-86
2023/06/02 05:53:11;;;;;;;5.10;2.70;;;;;;;24.37;56.81;98816.75;6156875;23;20511;-87
2023/06/02 05:55:37;;;;;;;6.03;2.90;;;;;;;24.50;53.93;98816.19;6155701;23;20163;-86
2023/06/02 05:58:02;;;;;;;6.23;2.83;;;;;;;24.69;50.97;98805.81;6156873;23;20593;-86
2023/06/02 06:00:28;;;;;;;5.00;2.37;;;;;;;24.75;51.59;98805.13;6156793;23;20197;-87
2023/06/02 06:02:53;;;;;;;7.47;2.40;;;;;;;24.76;51.14;98812.16;6156798;23;20562;-86
2023/06/02 06:05:19;;;;;;;6.07;2.83;;;;;;;24.89;50.98;98817.81;6156787;23;20190;-86
2023/06/02 06:07:44;;;;;;;6.47;2.67;;;;;;;24.81;48.42;98815.19;6156720;23;20206;-87
2023/06/02 06:10:10;;;;;;;4.77;2.47;;;;;;;25.00;49.11;98806.63;6156697;23;20148;-86
2023/06/02 06:12:35;;;;;;;4.57;2.27;;;;;;;25.11;47.11;98813.41;6130900;23;20162;-87
2023/06/02 06:15:01;;;;;;;4.47;2.23;;;;;;;25.28;45.97;98823.00;6130976;23;20155;-86
2023/06/02 06:17:26;;;;;;;4.57;2.23;;;;;;;25.42;45.69;98829.44;6155546;23;20159;-87
2023/06/02 06:19:52;;;;;;;6.50;2.90;;;;;;;25.48;46.78;98831.41;6156396;23;20278;-87
2023/06/02 06:22:17;;;;;;;5.10;2.03;;;;;;;25.73;46.65;98830.16;6156620;23;20575;-86
2023/06/02 06:24:43;;;;;;;6.63;2.67;;;;;;;25.76;46.06;98827.06;6131257;23;20159;-87
2023/06/02 06:27:08;;;;;;;4.60;2.20;;;;;;;25.86;44.23;98818.78;6156583;23;20187;-86
2023/06/02 06:29:34;;;;;;;3.80;2.00;;;;;;;26.08;44.78;98821.34;6156395;23;20582;-87
2023/06/02 06:32:00;;;;;;;5.82;2.22;;;;;;;26.40;42.63;98814.75;6157198;23;20254;-87
2023/06/02 06:34:27;;;;;;;4.57;2.20;;;;;;;26.54;43.91;98821.13;6156505;23;20174;-87
2023/06/02 06:36:52;;;;;;;6.20;2.10;;;;;;;26.76;43.10;98817.41;6156811;23;20217;-87
2023/06/02 06:39:18;;;;;;;5.63;2.20;;;;;;;26.75;40.14;98808.53;6156307;23;20631;-87
2023/06/02 06:41:43;;;;;;;4.72;2.42;;;;;;;26.83;42.21;98805.72;6130654;23;20155;-87
2023/06/02 06:44:08;;;;;;;4.60;2.45;;;;;;;27.09;43.03;98801.66;6156407;23;20221;-87
2023/06/02 06:46:34;;;;;;;3.97;2.03;;;;;;;27.26;40.91;98803.03;6156372;23;20622;-87
2023/06/02 06:49:00;;;;;;;8.27;2.75;;;;;;;27.49;42.22;98808.22;6156326;23;20570;-87
2023/06/02 06:51:26;;;;;;;8.20;2.30;;;;;;;27.84;40.16;98799.13;6156361;23;20151;-87
2023/06/02 06:53:51;;;;;;;3.90;1.92;;;;;;;28.16;39.47;98798.50;6156957;23;20238;-87
2023/06/02 06:56:17;;;;;;;6.55;2.97;;;;;;;28.20;43.12;98802.44;6156509;23;20151;-88
2023/06/02 06:58:43;;;;;;;8.27;2.35;;;;;;;28.18;44.01;98798.28;6156151;23;20155;-87
2023/06/02 07:01:10;;;;;;;4.47;2.30;;;;;;;28.40;43.20;98799.84;6156849;23;20159;-88
2023/06/02 07:03:35;;;;;;;5.75;2.65;;;;;;;28.52;43.90;98790.94;6156213;23;20147;-87
2023/06/02 07:06:01;;;;;;;4.80;2.53;;;;;;;28.58;42.30;98798.25;6156237;23;20154;-87
2023/06/02 07:08:26;;;;;;;6.32;2.63;;;;;;;28.79;42.49;98793.75;6130416;23;20488;-88
2023/06/02 07:10:52;;;;;;;7.80;2.55;;;;;;;28.87;41.26;98797.09;6156157;23;20159;-87
2023/06/02 07:13:18;;;;;;;5.93;2.88;;;;;;;28.88;39.02;98793.34;6156147;23;20151;-87
2023/06/02 07:15:44;;;;;;;4.63;2.53;;;;;;;28.93;40.88;98798.13;6156442;23;20147;-88
2023/06/02 07:18:09;;;;;;;5.32;2.55;;;;;;;28.80;41.02;98793.53;6156093;23;20161;-88
2023/06/02 07:20:35;;;;;;;4.18;2.20;;;;;;;28.92;41.60;98794.59;6155953;23;20187;-88
2023/06/02 07:23:00;;;;;;;8.00;2.45;;;;;;;29.20;42.49;98780.91;6156723;23;20147;-87
2023/06/02 07:25:26;;;;;;;10.20;2.75;;;;;;;29.53;41.64;98791.75;6156017;23;20162;-88
2023/06/02 07:27:53;;;;;;;4.57;2.13;;;;;;;29.62;41.71;98785.88;6156318;23;20569;-88
2023/06/02 07:30:19;;;;;;;7.57;2.60;;;;;;;29.81;41.05;98793.16;6156263;23;20147;-88
2023/06/02 07:32:44;;;;;;;5.43;2.85;;;;;;;29.89;38.64;98785.88;6155944;23;20151;-88
2023/06/02 07:35:10;;;;;;;6.82;2.33;;;;;;;29.90;40.38;98792.94;6130202;23;20154;-88
2023/06/02 07:37:35;;;;;;;7.28;3.17;;;;;;;29.90;39.65;98791.03;6156261;23;20151;-88
2023/06/02 07:40:01;;;;;;;5.90;2.63;;;;;;;30.00;39.67;98794.16;6156167;23;20174;-88
2023/06/02 07:42:26;;;;;;;6.40;2.50;;;;;;;30.07;41.23;98792.25;6155580;23;20151;-88
2023/06/02 07:44:52;;;;;;;4.15;2.10;;;;;;;30.15;39.87;98800.13;6156225;23;20147;-88
2023/06/02 07:47:18;;;;;;;6.07;2.80;;;;;;;30.28;40.24;98799.25;6156554;23;20162;-88
2023/06/02 07:49:43;;;;;;;3.90;2.22;;;;;;;30.28;40.01;98797.38;6156157;23;20147;-88
2023/06/02 07:52:09;;;;;;;7.10;2.60;;;;;;;30.45;38.76;98797.75;6155790;23;20572;-88
2023/06/02 07:54:35;;;;;;;6.53;2.28;;;;;;;30.53;37.99;98794.78;6155835;23;20158;-88
2023/06/02 07:57:00;;;;;;;6.43;2.67;;;;;;;30.67;39.07;98804.50;6155764;23;20147;-88
2023/06/02 07:59:25;;;;;;;4.50;2.10;;;;;;;30.65;37.60;98805.75;6156711;23;20198;-88
2023/06/02 08:01:51;;;;;;;4.72;2.20;;;;;;;30.88;35.74;98808.72;6129984;23;20491;-88
2023/06/02 08:04:17;;;;;;;6.30;2.13;;;;;;;30.81;35.67;98797.97;6155681;23;20190;-88
2023/06/02 08:06:42;;;;;;;4.68;2.25;;;;;;;30.85;38.09;98799.19;6155672;23;20480;-88
2023/06/02 08:09:08;;;;;;;8.35;2.53;;;;;;;31.02;35.52;98794.09;6156025;23;20162;-88
2023/06/02 08:11:34;;;;;;;6.93;2.90;;;;;;;30.97;35.86;98789.34;6156006;23;20151;-88
2023/06/02 08:14:00;;;;;;;4.13;1.88;;;;;;;30.90;37.47;98796.63;6155688;23;20589;-88
2023/06/02 08:16:25;;;;;;;4.10;2.00;;;;;;;31.13;35.18;98782.56;6155660;23;20694;-88
2023/06/02 08:18:50;;;;;;;4.13;1.92;;;;;;;31.16;33.58;98790.22;6156260;23;20162;-88
2023/06/02 08:21:17;;;;;;;3.70;1.75;;;;;;;31.21;32.58;98784.97;6156412;23;20213;-88
2023/06/02 08:23:42;;;;;;;4.03;1.80;;;;;;;31.09;34.56;98784.03;6155648;23;20230;-88
2023/06/02 08:26:08;;;;;;;5.00;2.03;;;;;;;31.14;34.60;98780.66;6156321;23;20209;-88
2023/06/02 08:28:33;;;;;;;4.80;2.25;;;;;;;31.18;34.78;98781.91;6155614;23;20687;-88
2023/06/02 08:31:00;;;;;;;5.30;1.60;;;;;;;30.97;35.25;98778.53;6155579;23;20238;-88
2023/06/02 08:33:27;;;;;;;4.65;2.35;;;;;;;30.98;33.76;98777.47;6129863;23;20151;-88
2023/06/02 08:35:52;;;;;;;6.07;2.15;;;;;;;30.97;32.83;98778.53;6155570;23;20151;-88
2023/06/02 08:38:18;;;;;;;4.55;2.30;;;;;;;31.05;33.26;98776.59;6155584;23;20602;-88
2023/06/02 08:40:46;;;;;;;5.95;2.20;;;;;;;30.97;32.21;98786.66;6155841;23;20175;-88
2023/06/02 08:43:13;;;;;;;7.60;2.53;;;;;;;30.93;33.90;98784.56;6155554;23;20147;-88
2023/06/02 08:45:49;;;;;;;3.95;1.80;;;;;;;30.95;35.64;98777.06;6155538;23;20159;-88
2023/06/02 08:48:17;;;;;;;4.13;1.95;;;;;;;30.97;35.17;98775.81;6155528;23;20246;-88
2023/06/02 08:50:48;;;;;;;4.00;1.80;;;;;;;31.09;35.37;98783.22;6155519;23;20143;-88
2023/06/02 08:53:16;;;;;;;4.47;2.10;;;;;;;31.21;35.43;98771.44;6156660;23;20270;-88
2023/06/02 08:55:42;;;;;;;4.40;2.00;;;;;;;31.33;34.95;98774.25;6157773;23;20151;-89
2023/06/02 08:58:11;;;;;;;7.95;1.95;;;;;;;31.55;33.44;98767.44;6132583;23;20170;-88
2023/06/02 09:00:37;;;;;;;3.92;1.92;;;;;;;31.49;33.47;98763.72;6157305;23;20190;-90
2023/06/02 09:03:04;;;;;;;4.53;2.33;;;;;;;31.46;33.96;98764.16;6157705;23;20222;-88
2023/06/02 09:05:31;;;;;;;3.67;1.58;;;;;;;31.52;33.66;98762.47;6131625;23;20158;-88
2023/06/02 09:08:11;;;;;;;3.75;1.80;;;;;;;31.56;32.16;98750.09;6157320;23;20159;-88
2023/06/02 09:10:40;;;;;;;6.47;2.28;;;;;;;31.54;32.85;98755.75;6157280;23;20571;-88
2023/06/02 09:13:09;;;;;;;5.03;1.90;;;;;;;31.58;31.96;98742.56;6157280;23;20587;-89
2023/06/02 09:15:36;;;;;;;3.28;1.75;;;;;;;31.71;32.12;98750.56;6157606;23;20174;-88
2023/06/02 09:18:12;;;;;;;3.00;1.38;;;;;;;31.76;30.13;98734.44;6157235;23;20155;-88
2023/06/02 09:20:39;;;;;;;3.60;1.83;;;;;;;32.00;29.98;98732.75;6131097;23;20281;-88
2023/06/02 09:23:06;;;;;;;3.22;1.83;;;;;;;32.00;29.31;98730.84;6157229;23;20221;-88
2023/06/02 09:25:33;;;;;;;4.97;1.70;;;;;;;32.03;28.38;98732.28;6157106;23;20151;-88
2023/06/02 09:28:00;;;;;;;3.70;1.98;;;;;;;32.14;27.55;98740.50;6157751;23;20162;-88
2023/06/02 09:30:27;;;;;;;2.63;1.33;;;;;;;32.15;29.78;98734.00;6131349;23;20662;-88
2023/06/02 09:32:58;;;;;;;3.65;1.73;;;;;;;32.30;26.53;98741.75;6157092;23;20151;-88
2023/06/02 09:35:44;;;;;;;6.07;1.67;;;;;;;32.29;27.97;98731.13;6131456;23;20226;-88
2023/06/02 09:38:16;;;;;;;3.03;1.58;;;;;;;32.30;30.51;98733.63;6157799;23;20135;-88
2023/06/02 09:40:44;;;;;;;2.47;1.20;;;;;;;32.28;28.49;98726.75;6156974;23;20270;-88
2023/06/02 09:43:15;;;;;;;5.25;2.03;;;;;;;32.21;28.22;98733.09;6157374;23;20147;-88
2023/06/02 09:45:47;;;;;;;3.30;1.45;;;;;;;32.30;27.49;98728.19;6157681;23;20458;-88
2023/06/02 09:48:27;;;;;;;5.55;1.95;;;;;;;32.08;29.31;98724.28;6131214;23;20163;-88
2023/06/02 09:50:53;;;;;;;5.80;2.53;;;;;;;32.17;28.33;98718.34;6157616;23;20127;-89
2023/06/02 09:53:19;;;;;;;3.85;1.58;;;;;;;32.30;29.26;98720.06;6156951;23;20218;-88
2023/06/02 09:55:48;;;;;;;3.35;1.58;;;;;;;32.36;27.63;98711.00;6156912;23;20162;-88
2023/06/02 09:58:13;;;;;;;3.95;1.55;;;;;;;32.33;29.02;98710.63;6156835;23;20151;-88
2023/06/02 10:00:39;;;;;;;3.88;1.85;;;;;;;32.37;28.59;98717.22;6130951;23;20618;-88
2023/06/02 10:03:06;;;;;;;3.42;1.50;;;;;;;32.26;28.54;98723.47;6156834;23;20154;-89
2023/06/02 10:05:32;;;;;;;3.20;1.50;;;;;;;32.18;29.46;98716.47;6156493;23;20192;-88
2023/06/02 10:08:20;;;;;;;6.25;1.90;;;;;;;31.97;28.61;98720.44;6130957;23;20178;-88
2023/06/02 10:10:52;;;;;;;3.05;1.48;;;;;;;31.88;27.48;98710.97;6157091;23;20143;-89
2023/06/02 10:13:45;;;;;;;3.97;1.95;;;;;;;31.97;26.54;98717.72;6157039;23;20147;-89
2023/06/02 10:16:29;;;;;;;6.60;1.98;;;;;;;32.10;28.59;98712.16;6131146;23;20167;-88
2023/06/02 10:19:16;;;;;;;8.02;1.60;;;;;;;32.12;28.48;98711.94;6130899;23;20155;-88
2023/06/02 10:21:54;;;;;;;8.63;2.35;;;;;;;32.20;30.39;98712.47;6102966;23;20525;-88
2023/06/02 10:24:19;;;;;;;3.50;1.50;;;;;;;32.37;29.94;98696.34;6127810;23;20132;-88
2023/06/02 10:27:30;;;;;;;3.88;1.20;;;;;;;32.63;29.45;98696.00;6127447;23;20209;-89
2023/06/02 10:29:56;;;;;;;7.32;1.42;;;;;;;32.85;29.23;98688.13;6067401;23;20548;-88
2023/06/02 10:32:33;;;;;;;4.38;1.80;;;;;;;32.91;29.20;98686.38;6114595;23;20160;-88
2023/06/02 10:35:00;;;;;;;6.15;2.15;;;;;;;32.92;27.94;98686.13;6127746;23;20167;-89
2023/06/02 10:37:26;;;;;;;3.88;1.88;;;;;;;33.05;28.55;98677.78;6127012;23;20182;-88
2023/06/02 10:39:54;;;;;;;4.65;1.90;;;;;;;33.00;28.59;98685.78;6127193;23;20247;-90
2023/06/02 10:42:22;;;;;;;3.15;1.27;;;;;;;32.77;29.17;98674.91;6126969;23;20160;-88
2023/06/02 10:44:48;;;;;;;3.17;1.70;;;;;;;32.70;29.09;98672.31;6126957;23;20260;-89
2023/06/02 10:47:19;;;;;;;4.10;1.60;;;;;;;32.74;29.71;98673.47;6126902;23;20176;-89
2023/06/02 10:50:24;;;;;;;5.95;1.60;;;;;;;32.69;29.71;98675.25;6126885;23;20480;-88
2023/06/02 10:53:04;;;;;;;4.05;2.05;;;;;;;32.62;28.85;98658.25;6114283;23;20166;-89
2023/06/02 10:55:30;;;;;;;3.55;1.77;;;;;;;32.70;30.30;98663.34;6101627;23;20148;-89
2023/06/02 10:58:01;;;;;;;3.65;1.83;;;;;;;32.83;29.28;98667.72;6101181;23;20605;-89
2023/06/02 11:00:29;;;;;;;3.90;1.77;;;;;;;32.60;28.40;98663.88;6127025;23;20176;-88
2023/06/02 11:02:55;;;;;;;3.10;1.55;;;;;;;32.69;29.06;98664.38;6127112;23;20152;-89
2023/06/02 11:05:25;;;;;;;2.75;1.58;;;;;;;32.95;28.39;98658.50;6127798;23;20158;-88
2023/06/02 11:08:12;;;;;;;5.78;1.80;;;;;;;32.83;29.90;98657.69;6126697;23;20212;-89
2023/06/02 11:10:42;;;;;;;4.10;1.80;;;;;;;32.51;29.89;98661.72;6126679;23;20160;-88
2023/06/02 11:13:08;;;;;;;4.10;1.80;;;;;;;32.72;29.98;98659.31;6126599;23;20152;-88
2023/06/02 11:15:34;;;;;;;3.10;1.92;;;;;;;32.59;29.41;98661.41;6126649;23;20163;-88
2023/06/02 11:18:03;;;;;;;5.72;1.90;;;;;;;31.98;29.50;98664.31;6125280;23;20231;-88
2023/06/02 11:20:36;;;;;;;4.10;1.60;;;;;;;31.64;29.65;98657.66;6144158;23;20191;-88
2023/06/02 11:23:03;;;;;;;6.13;1.88;;;;;;;32.13;28.79;98662.91;6156458;23;20131;-88
2023/06/02 11:25:29;;;;;;;3.92;1.42;;;;;;;32.38;29.41;98660.03;6155962;23;20598;-88
2023/06/02 11:27:54;;;;;;;3.47;1.67;;;;;;;32.55;28.54;98660.22;6156006;23;20151;-88
2023/06/02 11:30:20;;;;;;;3.75;1.83;;;;;;;32.66;28.54;98645.84;6155963;23;20661;-87
2023/06/02 11:32:48;;;;;;;10.80;2.50;;;;;;;32.59;29.91;98650.56;6155993;23;20155;-88
2023/06/02 11:35:14;;;;;;;5.82;1.95;;;;;;;32.41;28.44;98643.31;6156267;23;20147;-89
2023/06/02 11:37:42;;;;;;;3.83;1.70;;;;;;;32.43;29.09;98637.63;6155958;23;20151;-88